sensor_id;sensor_type;location;lat;lon;timestamp;pressure;altitude;pressure_sealevel;temperature;humidity
68329;BME280;55182;56.864;60.554;2022-12-10T00:01:26;78820.34;;;-143.60;70.75
68329;BME280;55182;56.864;60.554;2022-12-10T00:03:52;78820.34;;;-143.60;70.48
68329;BME280;55182;56.864;60.554;2022-12-10T00:06:18;78818.34;;;-143.60;70.59
68329;BME280;55182;56.864;60.554;2022-12-10T00:08:44;78822.38;;;-143.60;70.51
68329;BME280;55182;56.864;60.554;2022-12-10T00:11:10;78822.38;;;-143.60;70.43
68329;BME280;55182;56.864;60.554;2022-12-10T00:13:36;78820.34;;;-143.60;70.47
68329;BME280;55182;56.864;60.554;2022-12-10T00:16:02;78812.31;;;-143.60;70.26
68329;BME280;55182;56.864;60.554;2022-12-10T00:18:28;78820.34;;;-143.60;70.27
68329;BME280;55182;56.864;60.554;2022-12-10T00:20:54;78822.38;;;-143.60;70.18
68329;BME280;55182;56.864;60.554;2022-12-10T00:23:19;78822.38;;;-143.60;70.17
68329;BME280;55182;56.864;60.554;2022-12-10T00:25:44;78820.34;;;-143.60;70.51
68329;BME280;55182;56.864;60.554;2022-12-10T00:28:10;78816.31;;;-143.60;70.40
68329;BME280;55182;56.864;60.554;2022-12-10T00:30:36;78812.31;;;-143.60;70.30
68329;BME280;55182;56.864;60.554;2022-12-10T00:33:02;78812.31;;;-143.60;70.64
68329;BME280;55182;56.864;60.554;2022-12-10T00:35:27;78814.31;;;-143.60;70.75
68329;BME280;55182;56.864;60.554;2022-12-10T00:37:53;78820.34;;;-143.60;70.98
68329;BME280;55182;56.864;60.554;2022-12-10T00:40:18;78820.34;;;-143.60;71.22
68329;BME280;55182;56.864;60.554;2022-12-10T00:42:44;78816.31;;;-143.60;71.48
68329;BME280;55182;56.864;60.554;2022-12-10T00:45:09;78816.31;;;-143.60;71.58
68329;BME280;55182;56.864;60.554;2022-12-10T00:47:35;78816.31;;;-143.60;71.77
68329;BME280;55182;56.864;60.554;2022-12-10T00:50:01;78822.38;;;-143.60;71.79
68329;BME280;55182;56.864;60.554;2022-12-10T00:52:26;78824.38;;;-143.60;72.20
68329;BME280;55182;56.864;60.554;2022-12-10T00:54:52;78828.41;;;-143.60;72.64
68329;BME280;55182;56.864;60.554;2022-12-10T00:57:17;78820.34;;;-143.60;72.41
68329;BME280;55182;56.864;60.554;2022-12-10T00:59:43;78822.38;;;-143.60;72.68
68329;BME280;55182;56.864;60.554;2022-12-10T01:02:08;78828.41;;;-143.60;72.82
68329;BME280;55182;56.864;60.554;2022-12-10T01:04:34;78824.38;;;-143.60;72.94
68329;BME280;55182;56.864;60.554;2022-12-10T01:06:59;78824.38;;;-143.60;73.00
68329;BME280;55182;56.864;60.554;2022-12-10T01:09:26;78824.38;;;-143.60;73.12
68329;BME280;55182;56.864;60.554;2022-12-10T01:11:53;78828.41;;;-143.60;73.19
68329;BME280;55182;56.864;60.554;2022-12-10T01:14:19;78830.41;;;-143.60;73.20
68329;BME280;55182;56.864;60.554;2022-12-10T01:16:47;78832.41;;;-143.60;73.51
68329;BME280;55182;56.864;60.554;2022-12-10T01:19:12;78826.38;;;-143.60;73.63
68329;BME280;55182;56.864;60.554;2022-12-10T01:21:38;78828.41;;;-143.60;73.88
68329;BME280;55182;56.864;60.554;2022-12-10T01:24:03;78828.41;;;-143.60;73.82
68329;BME280;55182;56.864;60.554;2022-12-10T01:26:31;78828.41;;;-143.60;73.80
68329;BME280;55182;56.864;60.554;2022-12-10T01:28:56;78832.41;;;-143.60;74.04
68329;BME280;55182;56.864;60.554;2022-12-10T01:31:23;78836.44;;;-143.60;74.22
68329;BME280;55182;56.864;60.554;2022-12-10T01:33:49;78840.47;;;-143.60;74.29
68329;BME280;55182;56.864;60.554;2022-12-10T01:36:16;78832.41;;;-143.60;74.60
68329;BME280;55182;56.864;60.554;2022-12-10T01:38:43;78836.44;;;-143.60;74.89
68329;BME280;55182;56.864;60.554;2022-12-10T01:41:12;78830.41;;;-143.60;74.77
68329;BME280;55182;56.864;60.554;2022-12-10T01:46:24;78824.38;;;-143.60;74.69
68329;BME280;55182;56.864;60.554;2022-12-10T01:48:50;78818.34;;;-143.60;74.87
68329;BME280;55182;56.864;60.554;2022-12-10T01:51:17;78816.31;;;-143.60;74.43
68329;BME280;55182;56.864;60.554;2022-12-10T01:53:43;78816.31;;;-143.60;74.78
68329;BME280;55182;56.864;60.554;2022-12-10T01:56:10;78814.31;;;-143.60;74.50
68329;BME280;55182;56.864;60.554;2022-12-10T01:58:37;78810.28;;;-143.60;74.36
68329;BME280;55182;56.864;60.554;2022-12-10T02:03:51;78800.25;;;-143.60;74.83
68329;BME280;55182;56.864;60.554;2022-12-10T02:06:28;78798.22;;;-143.60;74.63
68329;BME280;55182;56.864;60.554;2022-12-10T02:09:02;78796.22;;;-143.60;74.56
68329;BME280;55182;56.864;60.554;2022-12-10T02:14:04;78788.19;;;-143.60;74.34
68329;BME280;55182;56.864;60.554;2022-12-10T02:16:34;78782.16;;;-143.60;74.51
68329;BME280;55182;56.864;60.554;2022-12-10T02:21:46;78788.19;;;-143.60;74.75
68329;BME280;55182;56.864;60.554;2022-12-10T02:24:14;78794.22;;;-143.60;74.71
68329;BME280;55182;56.864;60.554;2022-12-10T02:29:15;78792.19;;;-143.60;74.96
68329;BME280;55182;56.864;60.554;2022-12-10T02:31:46;78804.25;;;-143.60;75.29
68329;BME280;55182;56.864;60.554;2022-12-10T02:34:13;78796.22;;;-143.60;75.47
68329;BME280;55182;56.864;60.554;2022-12-10T02:36:40;78796.22;;;-143.60;75.55
68329;BME280;55182;56.864;60.554;2022-12-10T02:39:08;78788.19;;;-143.60;75.97
68329;BME280;55182;56.864;60.554;2022-12-10T02:41:42;78784.16;;;-143.60;76.11
68329;BME280;55182;56.864;60.554;2022-12-10T02:44:11;78778.13;;;-143.60;76.04
68329;BME280;55182;56.864;60.554;2022-12-10T02:46:38;78778.13;;;-143.60;76.25
68329;BME280;55182;56.864;60.554;2022-12-10T02:49:06;78776.13;;;-143.60;76.54
68329;BME280;55182;56.864;60.554;2022-12-10T02:51:34;78772.09;;;-143.60;76.50
68329;BME280;55182;56.864;60.554;2022-12-10T02:54:00;78764.03;;;-143.60;76.56
68329;BME280;55182;56.864;60.554;2022-12-10T03:01:36;78760.03;;;-143.60;76.30
68329;BME280;55182;56.864;60.554;2022-12-10T03:04:21;78756.00;;;-143.60;76.46
68329;BME280;55182;56.864;60.554;2022-12-10T03:06:50;78760.03;;;-143.60;76.52
68329;BME280;55182;56.864;60.554;2022-12-10T03:09:29;78760.03;;;-143.60;76.30
68329;BME280;55182;56.864;60.554;2022-12-10T03:12:01;78758.00;;;-143.60;76.18
68329;BME280;55182;56.864;60.554;2022-12-10T03:14:29;78756.00;;;-143.60;76.15
68329;BME280;55182;56.864;60.554;2022-12-10T03:16:58;78756.00;;;-143.60;76.43
68329;BME280;55182;56.864;60.554;2022-12-10T03:19:35;78751.97;;;-143.60;76.28
68329;BME280;55182;56.864;60.554;2022-12-10T03:22:02;78745.94;;;-143.60;76.38
68329;BME280;55182;56.864;60.554;2022-12-10T03:24:28;78754.00;;;-143.60;75.94
68329;BME280;55182;56.864;60.554;2022-12-10T03:26:55;78747.97;;;-143.60;75.84
68329;BME280;55182;56.864;60.554;2022-12-10T03:29:23;78745.94;;;-143.60;75.75
68329;BME280;55182;56.864;60.554;2022-12-10T03:31:52;78741.94;;;-143.60;75.83
68329;BME280;55182;56.864;60.554;2022-12-10T03:34:18;78729.88;;;-143.60;76.18
68329;BME280;55182;56.864;60.554;2022-12-10T03:36:44;78723.84;;;-143.60;75.86
68329;BME280;55182;56.864;60.554;2022-12-10T03:39:09;78729.88;;;-143.60;75.99
68329;BME280;55182;56.864;60.554;2022-12-10T03:41:35;78751.97;;;-143.60;75.61
68329;BME280;55182;56.864;60.554;2022-12-10T03:44:01;78754.00;;;-143.60;75.48
68329;BME280;55182;56.864;60.554;2022-12-10T03:46:27;78756.00;;;-143.60;75.38
68329;BME280;55182;56.864;60.554;2022-12-10T03:48:53;78749.97;;;-143.60;75.19
68329;BME280;55182;56.864;60.554;2022-12-10T03:51:19;78743.94;;;-143.60;75.16
68329;BME280;55182;56.864;60.554;2022-12-10T03:53:45;78747.97;;;-143.60;75.28
68329;BME280;55182;56.864;60.554;2022-12-10T03:56:10;78745.94;;;-143.60;75.08
68329;BME280;55182;56.864;60.554;2022-12-10T03:58:36;78743.94;;;-143.60;74.96
68329;BME280;55182;56.864;60.554;2022-12-10T04:01:02;78737.91;;;-143.60;75.05
68329;BME280;55182;56.864;60.554;2022-12-10T04:03:27;78741.94;;;-143.60;74.88
68329;BME280;55182;56.864;60.554;2022-12-10T04:05:53;78729.88;;;-143.60;74.84
68329;BME280;55182;56.864;60.554;2022-12-10T04:08:18;78731.88;;;-143.60;74.90
68329;BME280;55182;56.864;60.554;2022-12-10T04:10:44;78737.91;;;-143.60;74.77
68329;BME280;55182;56.864;60.554;2022-12-10T04:13:09;78733.88;;;-143.60;74.30
68329;BME280;55182;56.864;60.554;2022-12-10T04:15:37;78727.84;;;-143.60;74.20
68329;BME280;55182;56.864;60.554;2022-12-10T04:18:02;78733.88;;;-143.60;74.03
68329;BME280;55182;56.864;60.554;2022-12-10T04:20:28;78731.88;;;-143.60;73.84
68329;BME280;55182;56.864;60.554;2022-12-10T04:22:53;78731.88;;;-143.60;73.46
68329;BME280;55182;56.864;60.554;2022-12-10T04:25:19;78733.88;;;-143.60;73.55
68329;BME280;55182;56.864;60.554;2022-12-10T04:27:46;78727.84;;;-143.60;73.32
68329;BME280;55182;56.864;60.554;2022-12-10T04:30:12;78719.81;;;-143.60;73.52
68329;BME280;55182;56.864;60.554;2022-12-10T04:32:37;78711.75;;;-143.60;73.62
68329;BME280;55182;56.864;60.554;2022-12-10T04:35:04;78709.75;;;-143.60;73.59
68329;BME280;55182;56.864;60.554;2022-12-10T04:37:29;78691.66;;;-143.60;73.39
68329;BME280;55182;56.864;60.554;2022-12-10T04:39:55;78699.69;;;-143.60;73.16
68329;BME280;55182;56.864;60.554;2022-12-10T04:42:21;78715.78;;;-143.60;72.66
68329;BME280;55182;56.864;60.554;2022-12-10T04:44:47;78727.84;;;-143.60;72.34
68329;BME280;55182;56.864;60.554;2022-12-10T04:47:13;78737.91;;;-143.60;71.95
68329;BME280;55182;56.864;60.554;2022-12-10T04:49:39;78741.94;;;-143.60;71.84
68329;BME280;55182;56.864;60.554;2022-12-10T04:52:05;78745.94;;;-143.60;71.49
68329;BME280;55182;56.864;60.554;2022-12-10T04:54:32;78745.94;;;-143.60;71.03
68329;BME280;55182;56.864;60.554;2022-12-10T04:56:57;78756.00;;;-143.60;71.08
68329;BME280;55182;56.864;60.554;2022-12-10T04:59:22;78758.00;;;-143.60;71.06
68329;BME280;55182;56.864;60.554;2022-12-10T05:01:48;78751.97;;;-143.60;71.21
68329;BME280;55182;56.864;60.554;2022-12-10T05:04:15;78747.97;;;-143.60;70.39
68329;BME280;55182;56.864;60.554;2022-12-10T05:06:41;78741.94;;;-143.60;69.77
68329;BME280;55182;56.864;60.554;2022-12-10T05:09:07;78731.88;;;-143.60;69.24
68329;BME280;55182;56.864;60.554;2022-12-10T05:11:32;78715.78;;;-143.60;68.41
68329;BME280;55182;56.864;60.554;2022-12-10T05:13:58;78699.69;;;-143.60;67.87
68329;BME280;55182;56.864;60.554;2022-12-10T05:16:24;78687.63;;;-143.60;67.20
68329;BME280;55182;56.864;60.554;2022-12-10T05:18:51;78683.63;;;-143.60;66.63
68329;BME280;55182;56.864;60.554;2022-12-10T05:21:18;78673.56;;;-143.60;66.39
68329;BME280;55182;56.864;60.554;2022-12-10T05:23:45;78663.50;;;-143.60;66.08
68329;BME280;55182;56.864;60.554;2022-12-10T05:26:12;78653.47;;;-143.60;65.36
68329;BME280;55182;56.864;60.554;2022-12-10T05:28:38;78637.38;;;-143.60;65.29
68329;BME280;55182;56.864;60.554;2022-12-10T05:31:04;78625.31;;;-143.60;65.21
68329;BME280;55182;56.864;60.554;2022-12-10T05:33:30;78623.28;;;-143.60;64.66
68329;BME280;55182;56.864;60.554;2022-12-10T05:35:59;78625.31;;;-143.60;64.70
68329;BME280;55182;56.864;60.554;2022-12-10T05:38:26;78647.41;;;-143.60;64.06
68329;BME280;55182;56.864;60.554;2022-12-10T05:40:52;78659.50;;;-143.60;64.05
68329;BME280;55182;56.864;60.554;2022-12-10T05:43:18;78653.47;;;-143.60;63.89
68329;BME280;55182;56.864;60.554;2022-12-10T05:45:44;78655.47;;;-143.60;64.13
68329;BME280;55182;56.864;60.554;2022-12-10T05:48:10;78649.44;;;-143.60;63.67
68329;BME280;55182;56.864;60.554;2022-12-10T05:50:36;78635.34;;;-143.60;63.44
68329;BME280;55182;56.864;60.554;2022-12-10T05:53:02;78631.34;;;-143.60;63.61
68329;BME280;55182;56.864;60.554;2022-12-10T05:55:27;78623.28;;;-143.60;63.72
68329;BME280;55182;56.864;60.554;2022-12-10T05:57:53;78623.28;;;-143.60;63.10
68329;BME280;55182;56.864;60.554;2022-12-10T06:00:19;78623.28;;;-143.60;62.76
68329;BME280;55182;56.864;60.554;2022-12-10T06:02:44;78621.28;;;-143.60;62.78
68329;BME280;55182;56.864;60.554;2022-12-10T06:05:10;78633.34;;;-143.60;62.67
68329;BME280;55182;56.864;60.554;2022-12-10T06:07:35;78627.31;;;-143.60;62.48
68329;BME280;55182;56.864;60.554;2022-12-10T06:10:00;78629.31;;;-143.60;62.76
68329;BME280;55182;56.864;60.554;2022-12-10T06:12:26;78615.25;;;-143.60;62.46
68329;BME280;55182;56.864;60.554;2022-12-10T06:14:52;78615.25;;;-143.60;62.49
68329;BME280;55182;56.864;60.554;2022-12-10T06:17:17;78607.22;;;-143.60;62.07
68329;BME280;55182;56.864;60.554;2022-12-10T06:19:43;78609.22;;;-143.60;62.21
68329;BME280;55182;56.864;60.554;2022-12-10T06:22:08;78605.19;;;-143.60;61.85
68329;BME280;55182;56.864;60.554;2022-12-10T06:24:34;78607.22;;;-143.60;61.66
68329;BME280;55182;56.864;60.554;2022-12-10T06:26:59;78595.16;;;-143.60;61.81
68329;BME280;55182;56.864;60.554;2022-12-10T06:29:25;78583.09;;;-143.60;61.15
68329;BME280;55182;56.864;60.554;2022-12-10T06:31:50;78579.06;;;-143.60;60.77
68329;BME280;55182;56.864;60.554;2022-12-10T06:34:16;78567.00;;;-143.60;60.53
68329;BME280;55182;56.864;60.554;2022-12-10T06:36:41;78558.94;;;-143.60;60.41
68329;BME280;55182;56.864;60.554;2022-12-10T06:39:07;78552.91;;;-143.60;60.08
68329;BME280;55182;56.864;60.554;2022-12-10T06:41:32;78546.88;;;-143.60;60.13
68329;BME280;55182;56.864;60.554;2022-12-10T06:43:57;78544.88;;;-143.60;59.77
68329;BME280;55182;56.864;60.554;2022-12-10T06:46:23;78546.88;;;-143.60;59.78
68329;BME280;55182;56.864;60.554;2022-12-10T06:48:49;78538.84;;;-143.60;59.90
68329;BME280;55182;56.864;60.554;2022-12-10T06:51:14;78542.88;;;-143.60;59.78
68329;BME280;55182;56.864;60.554;2022-12-10T06:53:40;78538.84;;;-143.60;59.86
68329;BME280;55182;56.864;60.554;2022-12-10T06:56:06;78522.75;;;-143.60;58.95
68329;BME280;55182;56.864;60.554;2022-12-10T06:58:33;78522.75;;;-143.60;58.75
68329;BME280;55182;56.864;60.554;2022-12-10T07:01:18;78514.72;;;-143.60;58.97
68329;BME280;55182;56.864;60.554;2022-12-10T07:03:44;78510.69;;;-143.60;58.51
68329;BME280;55182;56.864;60.554;2022-12-10T07:06:12;78506.69;;;-143.60;58.07
68329;BME280;55182;56.864;60.554;2022-12-10T07:08:38;78488.56;;;-143.60;58.15
68329;BME280;55182;56.864;60.554;2022-12-10T07:11:07;78478.53;;;-143.60;58.42
68329;BME280;55182;56.864;60.554;2022-12-10T07:13:33;78470.47;;;-143.60;58.06
68329;BME280;55182;56.864;60.554;2022-12-10T07:15:59;78462.44;;;-143.60;57.78
68329;BME280;55182;56.864;60.554;2022-12-10T07:18:25;78462.44;;;-143.60;57.77
68329;BME280;55182;56.864;60.554;2022-12-10T07:20:50;78462.44;;;-143.60;57.52
68329;BME280;55182;56.864;60.554;2022-12-10T07:23:16;78446.34;;;-143.60;57.55
68329;BME280;55182;56.864;60.554;2022-12-10T07:25:41;78446.34;;;-143.60;57.24
68329;BME280;55182;56.864;60.554;2022-12-10T07:28:07;78424.25;;;-143.60;57.59
68329;BME280;55182;56.864;60.554;2022-12-10T07:30:33;78428.25;;;-143.60;57.75
68329;BME280;55182;56.864;60.554;2022-12-10T07:32:59;78426.25;;;-143.60;57.29
68329;BME280;55182;56.864;60.554;2022-12-10T07:35:25;78422.22;;;-143.60;57.29
68329;BME280;55182;56.864;60.554;2022-12-10T07:37:50;78426.25;;;-143.60;56.92
68329;BME280;55182;56.864;60.554;2022-12-10T07:40:16;78428.25;;;-143.60;56.97
68329;BME280;55182;56.864;60.554;2022-12-10T07:42:42;78426.25;;;-143.60;56.82
68329;BME280;55182;56.864;60.554;2022-12-10T07:45:08;78426.25;;;-143.60;57.19
68329;BME280;55182;56.864;60.554;2022-12-10T07:47:35;78420.22;;;-143.60;57.46
68329;BME280;55182;56.864;60.554;2022-12-10T07:50:00;78424.25;;;-143.60;56.96
68329;BME280;55182;56.864;60.554;2022-12-10T07:52:26;78412.19;;;-143.60;57.43
68329;BME280;55182;56.864;60.554;2022-12-10T07:54:52;78404.13;;;-143.60;57.69
68329;BME280;55182;56.864;60.554;2022-12-10T07:57:18;78410.16;;;-143.60;57.35
68329;BME280;55182;56.864;60.554;2022-12-10T07:59:44;78400.09;;;-143.60;57.24
68329;BME280;55182;56.864;60.554;2022-12-10T08:02:09;78402.13;;;-143.60;57.43
68329;BME280;55182;56.864;60.554;2022-12-10T08:04:35;78398.09;;;-143.60;57.43
68329;BME280;55182;56.864;60.554;2022-12-10T08:07:01;78398.09;;;-143.60;57.47
68329;BME280;55182;56.864;60.554;2022-12-10T08:09:26;78392.06;;;-143.60;57.40
68329;BME280;55182;56.864;60.554;2022-12-10T08:11:52;78386.03;;;-143.60;57.47
68329;BME280;55182;56.864;60.554;2022-12-10T08:14:18;78375.97;;;-143.60;57.43
68329;BME280;55182;56.864;60.554;2022-12-10T08:16:43;78367.94;;;-143.60;57.48
68329;BME280;55182;56.864;60.554;2022-12-10T08:19:09;78373.97;;;-143.60;57.16
68329;BME280;55182;56.864;60.554;2022-12-10T08:21:34;78359.91;;;-143.60;57.33
68329;BME280;55182;56.864;60.554;2022-12-10T08:24:00;78365.94;;;-143.60;57.27
68329;BME280;55182;56.864;60.554;2022-12-10T08:26:27;78351.84;;;-143.60;57.53
68329;BME280;55182;56.864;60.554;2022-12-10T08:28:52;78345.81;;;-143.60;57.14
68329;BME280;55182;56.864;60.554;2022-12-10T08:31:19;78341.81;;;-143.60;57.25
68329;BME280;55182;56.864;60.554;2022-12-10T08:33:45;78337.78;;;-143.60;57.28
68329;BME280;55182;56.864;60.554;2022-12-10T08:36:11;78327.72;;;-143.60;57.85
68329;BME280;55182;56.864;60.554;2022-12-10T08:38:37;78321.69;;;-143.60;57.07
68329;BME280;55182;56.864;60.554;2022-12-10T08:41:13;78305.63;;;-143.60;57.07
68329;BME280;55182;56.864;60.554;2022-12-10T08:43:39;78305.63;;;-143.60;56.71
68329;BME280;55182;56.864;60.554;2022-12-10T08:46:05;78313.66;;;-143.60;56.97
68329;BME280;55182;56.864;60.554;2022-12-10T08:48:31;78297.56;;;-143.60;57.62
68329;BME280;55182;56.864;60.554;2022-12-10T08:50:57;78291.53;;;-143.60;57.16
68329;BME280;55182;56.864;60.554;2022-12-10T08:53:23;78277.47;;;-143.60;56.28
68329;BME280;55182;56.864;60.554;2022-12-10T08:55:49;78279.47;;;-143.60;56.52
68329;BME280;55182;56.864;60.554;2022-12-10T08:58:14;78273.44;;;-143.60;56.26
68329;BME280;55182;56.864;60.554;2022-12-10T09:00:40;78261.38;;;-143.60;56.37
68329;BME280;55182;56.864;60.554;2022-12-10T09:03:05;78261.38;;;-143.60;55.60
68329;BME280;55182;56.864;60.554;2022-12-10T09:05:31;78261.38;;;-143.60;55.58
68329;BME280;55182;56.864;60.554;2022-12-10T09:07:59;78259.38;;;-143.60;56.31
68329;BME280;55182;56.864;60.554;2022-12-10T09:10:25;78249.31;;;-143.60;56.51
68329;BME280;55182;56.864;60.554;2022-12-10T09:12:50;78241.28;;;-143.60;56.42
68329;BME280;55182;56.864;60.554;2022-12-10T09:15:16;78249.31;;;-143.60;55.66
68329;BME280;55182;56.864;60.554;2022-12-10T09:17:41;78249.31;;;-143.60;55.40
68329;BME280;55182;56.864;60.554;2022-12-10T09:20:07;78255.34;;;-143.60;55.89
68329;BME280;55182;56.864;60.554;2022-12-10T09:22:33;78251.31;;;-143.60;56.09
68329;BME280;55182;56.864;60.554;2022-12-10T09:24:58;78239.25;;;-143.60;55.62
68329;BME280;55182;56.864;60.554;2022-12-10T09:27:23;78237.25;;;-143.60;55.32
68329;BME280;55182;56.864;60.554;2022-12-10T09:29:49;78217.16;;;-143.60;55.66
68329;BME280;55182;56.864;60.554;2022-12-10T09:32:15;78227.19;;;-143.60;56.05
68329;BME280;55182;56.864;60.554;2022-12-10T09:34:40;78225.19;;;-143.60;55.21
68329;BME280;55182;56.864;60.554;2022-12-10T09:37:05;78227.19;;;-143.60;54.81
68329;BME280;55182;56.864;60.554;2022-12-10T09:39:31;78225.19;;;-143.60;55.28
68329;BME280;55182;56.864;60.554;2022-12-10T09:47:04;78209.09;;;-143.60;55.66
68329;BME280;55182;56.864;60.554;2022-12-10T09:49:43;78213.13;;;-143.60;55.42
68329;BME280;55182;56.864;60.554;2022-12-10T09:52:13;78213.13;;;-143.60;55.38
68329;BME280;55182;56.864;60.554;2022-12-10T09:54:42;78205.09;;;-143.60;55.64
68329;BME280;55182;56.864;60.554;2022-12-10T09:57:20;78203.06;;;-143.60;56.05
68329;BME280;55182;56.864;60.554;2022-12-10T09:59:48;78199.06;;;-143.60;55.04
68329;BME280;55182;56.864;60.554;2022-12-10T10:02:21;78189.00;;;-143.60;55.22
68329;BME280;55182;56.864;60.554;2022-12-10T10:04:48;78199.06;;;-143.60;55.25
68329;BME280;55182;56.864;60.554;2022-12-10T10:07:19;78180.97;;;-143.60;55.88
68329;BME280;55182;56.864;60.554;2022-12-10T10:09:46;78193.03;;;-143.60;55.19
68329;BME280;55182;56.864;60.554;2022-12-10T10:12:14;78207.09;;;-143.60;55.41
68329;BME280;55182;56.864;60.554;2022-12-10T10:14:41;78209.09;;;-143.60;55.49
68329;BME280;55182;56.864;60.554;2022-12-10T10:17:09;78217.16;;;-143.60;55.62
68329;BME280;55182;56.864;60.554;2022-12-10T10:19:36;78217.16;;;-143.60;55.67
68329;BME280;55182;56.864;60.554;2022-12-10T10:22:03;78225.19;;;-143.60;55.39
68329;BME280;55182;56.864;60.554;2022-12-10T10:24:40;78225.19;;;-143.60;55.33
68329;BME280;55182;56.864;60.554;2022-12-10T10:27:16;78235.25;;;-143.60;55.55
68329;BME280;55182;56.864;60.554;2022-12-10T10:29:43;78221.16;;;-143.60;55.22
68329;BME280;55182;56.864;60.554;2022-12-10T10:32:11;78219.16;;;-143.60;55.20
68329;BME280;55182;56.864;60.554;2022-12-10T10:34:38;78217.16;;;-143.60;55.41
68329;BME280;55182;56.864;60.554;2022-12-10T10:37:04;78217.16;;;-143.60;55.30
68329;BME280;55182;56.864;60.554;2022-12-10T10:39:31;78211.13;;;-143.60;54.79
68329;BME280;55182;56.864;60.554;2022-12-10T10:41:58;78221.16;;;-143.60;54.96
68329;BME280;55182;56.864;60.554;2022-12-10T10:44:32;78231.22;;;-143.60;54.96
68329;BME280;55182;56.864;60.554;2022-12-10T10:46:58;78235.25;;;-143.60;55.28
68329;BME280;55182;56.864;60.554;2022-12-10T10:49:25;78229.22;;;-143.60;54.43
68329;BME280;55182;56.864;60.554;2022-12-10T10:51:51;78235.25;;;-143.60;54.89
68329;BME280;55182;56.864;60.554;2022-12-10T10:54:50;78237.25;;;-143.60;54.81
68329;BME280;55182;56.864;60.554;2022-12-10T10:57:25;78225.19;;;-143.60;54.40
68329;BME280;55182;56.864;60.554;2022-12-10T10:59:53;78225.19;;;-143.60;54.18
68329;BME280;55182;56.864;60.554;2022-12-10T11:04:46;78217.16;;;-143.60;54.32
68329;BME280;55182;56.864;60.554;2022-12-10T11:07:18;78217.16;;;-143.60;54.37
68329;BME280;55182;56.864;60.554;2022-12-10T11:09:44;78217.16;;;-143.60;54.69
68329;BME280;55182;56.864;60.554;2022-12-10T11:14:54;78215.13;;;-143.60;54.08
68329;BME280;55182;56.864;60.554;2022-12-10T11:17:21;78215.13;;;-143.60;54.02
68329;BME280;55182;56.864;60.554;2022-12-10T11:20:16;78221.16;;;-143.60;54.13
68329;BME280;55182;56.864;60.554;2022-12-10T11:22:53;78217.16;;;-143.60;53.85
68329;BME280;55182;56.864;60.554;2022-12-10T11:25:20;78229.22;;;-143.60;53.78
68329;BME280;55182;56.864;60.554;2022-12-10T11:27:55;78221.16;;;-143.60;54.13
68329;BME280;55182;56.864;60.554;2022-12-10T11:30:26;78225.19;;;-143.60;53.91
68329;BME280;55182;56.864;60.554;2022-12-10T11:35:39;78225.19;;;-143.60;54.00
68329;BME280;55182;56.864;60.554;2022-12-10T11:40:50;78211.13;;;-143.60;53.75
68329;BME280;55182;56.864;60.554;2022-12-10T11:48:31;78209.09;;;-143.60;53.91
68329;BME280;55182;56.864;60.554;2022-12-10T11:51:06;78207.09;;;-143.60;54.00
68329;BME280;55182;56.864;60.554;2022-12-10T11:56:21;78199.06;;;-143.60;54.10
68329;BME280;55182;56.864;60.554;2022-12-10T11:59:02;78201.06;;;-143.60;54.08
68329;BME280;55182;56.864;60.554;2022-12-10T12:01:39;78199.06;;;-143.60;54.19
68329;BME280;55182;56.864;60.554;2022-12-10T12:10:07;78189.00;;;-143.60;54.13
68329;BME280;55182;56.864;60.554;2022-12-10T12:15:00;78168.91;;;-143.60;54.07
68329;BME280;55182;56.864;60.554;2022-12-10T12:17:34;78172.91;;;-143.60;53.60
68329;BME280;55182;56.864;60.554;2022-12-10T12:20:04;78162.88;;;-143.60;53.80
68329;BME280;55182;56.864;60.554;2022-12-10T12:22:34;78166.88;;;-143.60;53.72
68329;BME280;55182;56.864;60.554;2022-12-10T12:25:25;78168.91;;;-143.60;53.70
68329;BME280;55182;56.864;60.554;2022-12-10T12:27:49;78152.81;;;-143.60;53.93
68329;BME280;55182;56.864;60.554;2022-12-10T12:30:17;78158.84;;;-143.60;53.44
68329;BME280;55182;56.864;60.554;2022-12-10T12:35:23;78156.84;;;-143.60;53.76
68329;BME280;55182;56.864;60.554;2022-12-10T12:38:00;78158.84;;;-143.60;53.48
68329;BME280;55182;56.864;60.554;2022-12-10T12:43:07;78144.78;;;-143.60;53.68
68329;BME280;55182;56.864;60.554;2022-12-10T12:45:45;78144.78;;;-143.60;53.77
68329;BME280;55182;56.864;60.554;2022-12-10T12:53:12;78136.72;;;-143.60;53.92
68329;BME280;55182;56.864;60.554;2022-12-10T12:55:50;78138.75;;;-143.60;53.65
68329;BME280;55182;56.864;60.554;2022-12-10T13:00:54;78122.66;;;-143.60;54.08
68329;BME280;55182;56.864;60.554;2022-12-10T13:05:52;78144.78;;;-143.60;54.58
68329;BME280;55182;56.864;60.554;2022-12-10T13:10:45;78138.75;;;-143.60;54.61
68329;BME280;55182;56.864;60.554;2022-12-10T13:13:22;78150.81;;;-143.60;54.64
68329;BME280;55182;56.864;60.554;2022-12-10T13:15:47;78150.81;;;-143.60;54.77
68329;BME280;55182;56.864;60.554;2022-12-10T13:23:05;78160.84;;;-143.60;54.45
68329;BME280;55182;56.864;60.554;2022-12-10T13:28:28;78172.91;;;-143.60;54.02
68329;BME280;55182;56.864;60.554;2022-12-10T13:36:12;78164.88;;;-143.60;53.66
68329;BME280;55182;56.864;60.554;2022-12-10T13:38:41;78156.84;;;-143.60;53.70
68329;BME280;55182;56.864;60.554;2022-12-10T13:41:19;78140.75;;;-143.60;53.82
68329;BME280;55182;56.864;60.554;2022-12-10T13:43:51;78124.66;;;-143.60;53.27
68329;BME280;55182;56.864;60.554;2022-12-10T13:48:55;78116.63;;;-143.60;53.55
68329;BME280;55182;56.864;60.554;2022-12-10T13:52:07;78100.53;;;-143.60;53.04
68329;BME280;55182;56.864;60.554;2022-12-10T13:56:43;78100.53;;;-143.60;53.05
68329;BME280;55182;56.864;60.554;2022-12-10T13:59:23;78092.50;;;-143.60;53.64